sensor_id;sensor_type;location;lat;lon;timestamp;temperature;humidity
11221;DHT22;8517;53.546;10.104;2023-07-28T00:01:08;18.40;99.90
11221;DHT22;8517;53.546;10.104;2023-07-28T00:03:35;18.40;99.90
11221;DHT22;8517;53.546;10.104;2023-07-28T00:06:02;18.40;99.90
11221;DHT22;8517;53.546;10.104;2023-07-28T00:08:28;18.40;99.90
11221;DHT22;8517;53.546;10.104;2023-07-28T00:10:55;18.40;99.90
11221;DHT22;8517;53.546;10.104;2023-07-28T00:13:23;18.40;99.90
11221;DHT22;8517;53.546;10.104;2023-07-28T00:15:50;18.50;99.90
11221;DHT22;8517;53.546;10.104;2023-07-28T00:18:17;18.50;99.90
11221;DHT22;8517;53.546;10.104;2023-07-28T00:20:46;18.50;99.90
11221;DHT22;8517;53.546;10.104;2023-07-28T00:23:13;18.50;99.90
11221;DHT22;8517;53.546;10.104;2023-07-28T00:25:40;18.60;99.90
11221;DHT22;8517;53.546;10.104;2023-07-28T00:28:06;18.60;99.90
11221;DHT22;8517;53.546;10.104;2023-07-28T00:30:35;18.60;99.90
11221;DHT22;8517;53.546;10.104;2023-07-28T00:33:01;18.60;99.90
11221;DHT22;8517;53.546;10.104;2023-07-28T00:35:28;18.60;99.90
11221;DHT22;8517;53.546;10.104;2023-07-28T00:37:55;18.60;99.90
11221;DHT22;8517;53.546;10.104;2023-07-28T00:40:22;18.60;99.90
11221;DHT22;8517;53.546;10.104;2023-07-28T00:42:49;18.60;99.90
11221;DHT22;8517;53.546;10.104;2023-07-28T00:45:16;18.60;99.90
11221;DHT22;8517;53.546;10.104;2023-07-28T00:47:45;18.60;99.90
11221;DHT22;8517;53.546;10.104;2023-07-28T00:50:12;18.60;99.90
11221;DHT22;8517;53.546;10.104;2023-07-28T00:52:39;18.70;99.90
11221;DHT22;8517;53.546;10.104;2023-07-28T00:55:06;18.70;99.90
11221;DHT22;8517;53.546;10.104;2023-07-28T00:57:33;18.70;99.90
11221;DHT22;8517;53.546;10.104;2023-07-28T01:00:00;18.70;99.90
11221;DHT22;8517;53.546;10.104;2023-07-28T01:02:28;18.70;99.90
11221;DHT22;8517;53.546;10.104;2023-07-28T01:04:56;18.70;99.90
11221;DHT22;8517;53.546;10.104;2023-07-28T01:07:38;18.70;99.90
11221;DHT22;8517;53.546;10.104;2023-07-28T01:10:12;18.70;99.90
11221;DHT22;8517;53.546;10.104;2023-07-28T01:12:39;18.80;99.90
11221;DHT22;8517;53.546;10.104;2023-07-28T01:15:06;18.80;99.90
11221;DHT22;8517;53.546;10.104;2023-07-28T01:17:33;18.80;99.90
11221;DHT22;8517;53.546;10.104;2023-07-28T01:20:02;18.80;99.90
11221;DHT22;8517;53.546;10.104;2023-07-28T01:22:46;18.70;99.90
11221;DHT22;8517;53.546;10.104;2023-07-28T01:25:18;18.80;99.90
11221;DHT22;8517;53.546;10.104;2023-07-28T01:27:49;18.80;99.90
11221;DHT22;8517;53.546;10.104;2023-07-28T01:30:17;18.80;99.90
11221;DHT22;8517;53.546;10.104;2023-07-28T01:32:45;18.80;99.90
11221;DHT22;8517;53.546;10.104;2023-07-28T01:35:11;18.80;99.90
11221;DHT22;8517;53.546;10.104;2023-07-28T01:37:38;18.80;99.90
11221;DHT22;8517;53.546;10.104;2023-07-28T01:40:06;18.80;99.90
11221;DHT22;8517;53.546;10.104;2023-07-28T01:42:33;18.80;99.90
11221;DHT22;8517;53.546;10.104;2023-07-28T01:45:01;18.80;99.90
11221;DHT22;8517;53.546;10.104;2023-07-28T01:47:28;18.80;99.90
11221;DHT22;8517;53.546;10.104;2023-07-28T01:49:55;18.80;99.90
11221;DHT22;8517;53.546;10.104;2023-07-28T01:52:22;18.80;99.90
11221;DHT22;8517;53.546;10.104;2023-07-28T01:54:49;18.80;99.90
11221;DHT22;8517;53.546;10.104;2023-07-28T01:57:17;18.90;99.90
11221;DHT22;8517;53.546;10.104;2023-07-28T01:59:44;18.80;99.90
11221;DHT22;8517;53.546;10.104;2023-07-28T02:02:12;18.80;99.90
11221;DHT22;8517;53.546;10.104;2023-07-28T02:04:39;18.90;99.90
11221;DHT22;8517;53.546;10.104;2023-07-28T02:07:06;18.90;99.90
11221;DHT22;8517;53.546;10.104;2023-07-28T02:09:33;18.90;99.90
11221;DHT22;8517;53.546;10.104;2023-07-28T02:11:59;18.90;99.90
11221;DHT22;8517;53.546;10.104;2023-07-28T02:14:26;18.90;99.90
11221;DHT22;8517;53.546;10.104;2023-07-28T02:16:53;18.90;99.90
11221;DHT22;8517;53.546;10.104;2023-07-28T02:19:21;18.90;99.90
11221;DHT22;8517;53.546;10.104;2023-07-28T02:21:48;18.90;99.90
11221;DHT22;8517;53.546;10.104;2023-07-28T02:24:15;18.90;99.90
11221;DHT22;8517;53.546;10.104;2023-07-28T02:26:41;18.90;99.90
11221;DHT22;8517;53.546;10.104;2023-07-28T02:29:08;18.90;99.90
11221;DHT22;8517;53.546;10.104;2023-07-28T02:31:35;18.90;99.90
11221;DHT22;8517;53.546;10.104;2023-07-28T02:34:02;18.90;99.90
11221;DHT22;8517;53.546;10.104;2023-07-28T02:36:31;18.90;99.90
11221;DHT22;8517;53.546;10.104;2023-07-28T02:38:58;19.00;99.90
11221;DHT22;8517;53.546;10.104;2023-07-28T02:41:25;18.90;99.90
11221;DHT22;8517;53.546;10.104;2023-07-28T02:43:51;18.90;99.90
11221;DHT22;8517;53.546;10.104;2023-07-28T02:46:18;18.90;99.90
11221;DHT22;8517;53.546;10.104;2023-07-28T02:48:45;19.00;99.90
11221;DHT22;8517;53.546;10.104;2023-07-28T02:51:12;19.00;99.90
11221;DHT22;8517;53.546;10.104;2023-07-28T02:53:40;19.00;99.90
11221;DHT22;8517;53.546;10.104;2023-07-28T02:56:07;19.00;99.90
11221;DHT22;8517;53.546;10.104;2023-07-28T02:58:34;19.00;99.90
11221;DHT22;8517;53.546;10.104;2023-07-28T03:01:01;19.00;99.90
11221;DHT22;8517;53.546;10.104;2023-07-28T03:03:27;18.90;99.90
11221;DHT22;8517;53.546;10.104;2023-07-28T03:05:54;18.90;99.90
11221;DHT22;8517;53.546;10.104;2023-07-28T03:08:21;18.90;99.90
11221;DHT22;8517;53.546;10.104;2023-07-28T03:10:49;18.90;99.90
11221;DHT22;8517;53.546;10.104;2023-07-28T03:13:16;18.90;99.90
11221;DHT22;8517;53.546;10.104;2023-07-28T03:15:43;18.90;99.90
11221;DHT22;8517;53.546;10.104;2023-07-28T03:18:09;18.90;99.90
11221;DHT22;8517;53.546;10.104;2023-07-28T03:20:36;18.90;99.90
11221;DHT22;8517;53.546;10.104;2023-07-28T03:23:03;18.80;99.90
11221;DHT22;8517;53.546;10.104;2023-07-28T03:25:29;18.80;99.90
11221;DHT22;8517;53.546;10.104;2023-07-28T03:27:58;18.80;99.90
11221;DHT22;8517;53.546;10.104;2023-07-28T03:30:24;18.80;99.90
11221;DHT22;8517;53.546;10.104;2023-07-28T03:32:51;18.80;99.90
11221;DHT22;8517;53.546;10.104;2023-07-28T03:35:18;18.80;99.90
11221;DHT22;8517;53.546;10.104;2023-07-28T03:37:45;18.80;99.90
11221;DHT22;8517;53.546;10.104;2023-07-28T03:40:11;18.80;99.90
11221;DHT22;8517;53.546;10.104;2023-07-28T03:42:38;18.80;99.90
11221;DHT22;8517;53.546;10.104;2023-07-28T03:45:08;18.70;99.90
11221;DHT22;8517;53.546;10.104;2023-07-28T03:47:35;18.70;99.90
11221;DHT22;8517;53.546;10.104;2023-07-28T03:50:02;18.70;99.90
11221;DHT22;8517;53.546;10.104;2023-07-28T03:52:29;18.70;99.90
11221;DHT22;8517;53.546;10.104;2023-07-28T03:54:56;18.70;99.90
11221;DHT22;8517;53.546;10.104;2023-07-28T03:57:23;18.70;99.90
11221;DHT22;8517;53.546;10.104;2023-07-28T03:59:49;18.70;99.90
11221;DHT22;8517;53.546;10.104;2023-07-28T04:02:17;18.70;99.90
11221;DHT22;8517;53.546;10.104;2023-07-28T04:04:44;18.70;99.90
11221;DHT22;8517;53.546;10.104;2023-07-28T04:07:11;18.70;99.90
11221;DHT22;8517;53.546;10.104;2023-07-28T04:09:38;18.70;99.90
11221;DHT22;8517;53.546;10.104;2023-07-28T04:12:05;18.70;99.90
11221;DHT22;8517;53.546;10.104;2023-07-28T04:14:32;18.70;99.90
11221;DHT22;8517;53.546;10.104;2023-07-28T04:16:58;18.70;99.90
11221;DHT22;8517;53.546;10.104;2023-07-28T04:19:27;18.70;99.90
11221;DHT22;8517;53.546;10.104;2023-07-28T04:21:54;18.70;99.90
11221;DHT22;8517;53.546;10.104;2023-07-28T04:24:21;18.80;99.90
11221;DHT22;8517;53.546;10.104;2023-07-28T04:26:48;18.70;99.90
11221;DHT22;8517;53.546;10.104;2023-07-28T04:29:15;18.80;99.90
11221;DHT22;8517;53.546;10.104;2023-07-28T04:31:42;18.80;99.90
11221;DHT22;8517;53.546;10.104;2023-07-28T04:34:09;18.70;99.90
11221;DHT22;8517;53.546;10.104;2023-07-28T04:36:37;18.80;99.90
11221;DHT22;8517;53.546;10.104;2023-07-28T04:39:04;18.80;99.90
11221;DHT22;8517;53.546;10.104;2023-07-28T04:41:30;18.80;99.90
11221;DHT22;8517;53.546;10.104;2023-07-28T04:43:57;18.80;99.90
11221;DHT22;8517;53.546;10.104;2023-07-28T04:46:24;18.80;99.90
11221;DHT22;8517;53.546;10.104;2023-07-28T04:48:53;18.80;99.90
11221;DHT22;8517;53.546;10.104;2023-07-28T04:51:20;18.80;99.90
11221;DHT22;8517;53.546;10.104;2023-07-28T04:53:48;18.80;99.90
11221;DHT22;8517;53.546;10.104;2023-07-28T04:56:15;18.80;99.90
11221;DHT22;8517;53.546;10.104;2023-07-28T04:58:41;18.80;99.90
11221;DHT22;8517;53.546;10.104;2023-07-28T05:01:08;18.90;99.90
11221;DHT22;8517;53.546;10.104;2023-07-28T05:03:35;18.90;99.90
11221;DHT22;8517;53.546;10.104;2023-07-28T05:06:03;18.90;99.90
11221;DHT22;8517;53.546;10.104;2023-07-28T05:08:30;18.90;99.90
11221;DHT22;8517;53.546;10.104;2023-07-28T05:10:58;18.90;99.90
11221;DHT22;8517;53.546;10.104;2023-07-28T05:13:25;18.90;99.90
11221;DHT22;8517;53.546;10.104;2023-07-28T05:15:52;19.00;99.90
11221;DHT22;8517;53.546;10.104;2023-07-28T05:18:19;19.00;99.90
11221;DHT22;8517;53.546;10.104;2023-07-28T05:20:45;19.00;99.90
11221;DHT22;8517;53.546;10.104;2023-07-28T05:23:12;19.00;99.90
11221;DHT22;8517;53.546;10.104;2023-07-28T05:25:39;19.10;99.90
11221;DHT22;8517;53.546;10.104;2023-07-28T05:28:07;19.10;99.90
11221;DHT22;8517;53.546;10.104;2023-07-28T05:30:34;19.20;99.90
11221;DHT22;8517;53.546;10.104;2023-07-28T05:33:00;19.20;99.90
11221;DHT22;8517;53.546;10.104;2023-07-28T05:35:27;19.20;99.90
11221;DHT22;8517;53.546;10.104;2023-07-28T05:37:54;19.20;99.90
11221;DHT22;8517;53.546;10.104;2023-07-28T05:40:21;19.20;99.90
11221;DHT22;8517;53.546;10.104;2023-07-28T05:42:47;19.20;99.90
11221;DHT22;8517;53.546;10.104;2023-07-28T05:45:16;19.30;99.90
11221;DHT22;8517;53.546;10.104;2023-07-28T05:47:43;19.30;99.90
11221;DHT22;8517;53.546;10.104;2023-07-28T05:50:10;19.30;99.90
11221;DHT22;8517;53.546;10.104;2023-07-28T05:52:36;19.30;99.90
11221;DHT22;8517;53.546;10.104;2023-07-28T05:55:04;19.40;99.90
11221;DHT22;8517;53.546;10.104;2023-07-28T05:57:31;19.40;99.90
11221;DHT22;8517;53.546;10.104;2023-07-28T05:59:58;19.40;99.90
11221;DHT22;8517;53.546;10.104;2023-07-28T06:02:26;19.40;99.90
11221;DHT22;8517;53.546;10.104;2023-07-28T06:04:53;19.40;99.90
11221;DHT22;8517;53.546;10.104;2023-07-28T06:07:20;19.50;99.90
11221;DHT22;8517;53.546;10.104;2023-07-28T06:09:47;19.50;99.90
11221;DHT22;8517;53.546;10.104;2023-07-28T06:12:13;19.50;99.90
11221;DHT22;8517;53.546;10.104;2023-07-28T06:14:41;19.60;99.90
11221;DHT22;8517;53.546;10.104;2023-07-28T06:17:08;19.60;99.90
11221;DHT22;8517;53.546;10.104;2023-07-28T06:19:36;19.70;99.90
11221;DHT22;8517;53.546;10.104;2023-07-28T06:22:03;19.70;99.90
11221;DHT22;8517;53.546;10.104;2023-07-28T06:24:30;19.70;99.90
11221;DHT22;8517;53.546;10.104;2023-07-28T06:26:57;19.80;99.90
11221;DHT22;8517;53.546;10.104;2023-07-28T06:29:24;19.90;99.90
11221;DHT22;8517;53.546;10.104;2023-07-28T06:31:51;19.90;99.90
11221;DHT22;8517;53.546;10.104;2023-07-28T06:34:18;20.00;99.90
11221;DHT22;8517;53.546;10.104;2023-07-28T06:36:46;20.10;99.90
11221;DHT22;8517;53.546;10.104;2023-07-28T06:39:13;20.20;99.90
11221;DHT22;8517;53.546;10.104;2023-07-28T06:41:40;20.20;99.90
11221;DHT22;8517;53.546;10.104;2023-07-28T06:44:09;20.30;99.90
11221;DHT22;8517;53.546;10.104;2023-07-28T06:46:36;20.40;99.90
11221;DHT22;8517;53.546;10.104;2023-07-28T06:49:03;20.40;99.90
11221;DHT22;8517;53.546;10.104;2023-07-28T06:51:30;20.40;99.90
11221;DHT22;8517;53.546;10.104;2023-07-28T06:53:58;20.40;99.90
11221;DHT22;8517;53.546;10.104;2023-07-28T06:56:25;20.40;99.90
11221;DHT22;8517;53.546;10.104;2023-07-28T06:58:51;20.30;99.90
11221;DHT22;8517;53.546;10.104;2023-07-28T07:01:18;20.40;99.90
11221;DHT22;8517;53.546;10.104;2023-07-28T07:03:45;20.40;99.90
11221;DHT22;8517;53.546;10.104;2023-07-28T07:06:12;20.40;99.90
11221;DHT22;8517;53.546;10.104;2023-07-28T07:08:39;20.40;99.90
11221;DHT22;8517;53.546;10.104;2023-07-28T07:11:07;20.40;99.90
11221;DHT22;8517;53.546;10.104;2023-07-28T07:13:34;20.40;99.90
11221;DHT22;8517;53.546;10.104;2023-07-28T07:16:00;20.40;99.90
11221;DHT22;8517;53.546;10.104;2023-07-28T07:18:27;20.40;99.90
11221;DHT22;8517;53.546;10.104;2023-07-28T07:20:54;20.40;99.90
11221;DHT22;8517;53.546;10.104;2023-07-28T07:23:21;20.40;99.90
11221;DHT22;8517;53.546;10.104;2023-07-28T07:25:49;20.40;99.90
11221;DHT22;8517;53.546;10.104;2023-07-28T07:28:17;20.50;99.90
11221;DHT22;8517;53.546;10.104;2023-07-28T07:30:45;20.60;99.90
11221;DHT22;8517;53.546;10.104;2023-07-28T07:33:12;20.70;99.90
11221;DHT22;8517;53.546;10.104;2023-07-28T07:35:38;20.70;99.90
11221;DHT22;8517;53.546;10.104;2023-07-28T07:38:05;20.80;99.90
11221;DHT22;8517;53.546;10.104;2023-07-28T07:40:34;20.90;99.90
11221;DHT22;8517;53.546;10.104;2023-07-28T07:43:03;21.00;99.90
11221;DHT22;8517;53.546;10.104;2023-07-28T07:45:32;21.10;99.90
11221;DHT22;8517;53.546;10.104;2023-07-28T07:47:59;21.10;99.90
11221;DHT22;8517;53.546;10.104;2023-07-28T07:50:26;21.20;99.90
11221;DHT22;8517;53.546;10.104;2023-07-28T07:52:53;21.20;99.90
11221;DHT22;8517;53.546;10.104;2023-07-28T07:55:19;21.20;99.90
11221;DHT22;8517;53.546;10.104;2023-07-28T07:57:46;21.20;99.90
11221;DHT22;8517;53.546;10.104;2023-07-28T08:00:14;21.20;99.90
11221;DHT22;8517;53.546;10.104;2023-07-28T08:02:42;21.20;99.90
11221;DHT22;8517;53.546;10.104;2023-07-28T08:05:09;21.30;99.90
11221;DHT22;8517;53.546;10.104;2023-07-28T08:07:36;21.30;99.90
11221;DHT22;8517;53.546;10.104;2023-07-28T08:10:03;21.30;99.90
11221;DHT22;8517;53.546;10.104;2023-07-28T08:12:30;21.40;99.90
11221;DHT22;8517;53.546;10.104;2023-07-28T08:14:57;21.50;99.90
11221;DHT22;8517;53.546;10.104;2023-07-28T08:17:24;21.60;99.90
11221;DHT22;8517;53.546;10.104;2023-07-28T08:19:52;21.70;99.90
11221;DHT22;8517;53.546;10.104;2023-07-28T08:22:19;21.80;99.90
11221;DHT22;8517;53.546;10.104;2023-07-28T08:24:46;21.80;99.90
11221;DHT22;8517;53.546;10.104;2023-07-28T08:27:13;22.00;99.90
11221;DHT22;8517;53.546;10.104;2023-07-28T08:29:40;22.10;99.90
11221;DHT22;8517;53.546;10.104;2023-07-28T08:32:07;22.20;99.90
11221;DHT22;8517;53.546;10.104;2023-07-28T08:34:34;22.30;99.90
11221;DHT22;8517;53.546;10.104;2023-07-28T08:37:02;22.40;99.90
11221;DHT22;8517;53.546;10.104;2023-07-28T08:39:29;22.50;99.90
11221;DHT22;8517;53.546;10.104;2023-07-28T08:42:00;22.50;99.90
11221;DHT22;8517;53.546;10.104;2023-07-28T08:44:29;22.60;99.90
11221;DHT22;8517;53.546;10.104;2023-07-28T08:46:56;22.60;99.90
11221;DHT22;8517;53.546;10.104;2023-07-28T08:49:23;22.60;99.90
11221;DHT22;8517;53.546;10.104;2023-07-28T08:51:50;22.60;99.90
11221;DHT22;8517;53.546;10.104;2023-07-28T08:54:18;22.50;99.90
11221;DHT22;8517;53.546;10.104;2023-07-28T08:56:46;22.40;99.90
11221;DHT22;8517;53.546;10.104;2023-07-28T08:59:20;22.40;99.90
11221;DHT22;8517;53.546;10.104;2023-07-28T09:01:49;22.30;99.90
11221;DHT22;8517;53.546;10.104;2023-07-28T09:04:16;22.30;99.90
11221;DHT22;8517;53.546;10.104;2023-07-28T09:06:44;22.20;99.90
11221;DHT22;8517;53.546;10.104;2023-07-28T09:09:11;22.20;99.90
11221;DHT22;8517;53.546;10.104;2023-07-28T09:11:45;22.10;99.90
11221;DHT22;8517;53.546;10.104;2023-07-28T09:14:13;22.10;99.90
11221;DHT22;8517;53.546;10.104;2023-07-28T09:16:40;22.10;99.90
11221;DHT22;8517;53.546;10.104;2023-07-28T09:19:08;22.00;99.90
11221;DHT22;8517;53.546;10.104;2023-07-28T09:21:35;22.00;99.90
11221;DHT22;8517;53.546;10.104;2023-07-28T09:24:04;22.10;99.90
11221;DHT22;8517;53.546;10.104;2023-07-28T09:26:37;22.10;99.90
11221;DHT22;8517;53.546;10.104;2023-07-28T09:29:13;22.10;99.90
11221;DHT22;8517;53.546;10.104;2023-07-28T09:31:40;22.10;99.90
11221;DHT22;8517;53.546;10.104;2023-07-28T09:34:07;22.10;99.90
11221;DHT22;8517;53.546;10.104;2023-07-28T09:36:35;22.20;99.90
11221;DHT22;8517;53.546;10.104;2023-07-28T09:39:04;22.20;99.90
11221;DHT22;8517;53.546;10.104;2023-07-28T09:41:34;22.30;99.90
11221;DHT22;8517;53.546;10.104;2023-07-28T09:44:02;22.30;99.90
11221;DHT22;8517;53.546;10.104;2023-07-28T09:46:33;22.30;99.90
11221;DHT22;8517;53.546;10.104;2023-07-28T09:49:04;22.30;99.90
11221;DHT22;8517;53.546;10.104;2023-07-28T09:51:31;22.40;99.90
11221;DHT22;8517;53.546;10.104;2023-07-28T09:54:04;22.40;99.90
11221;DHT22;8517;53.546;10.104;2023-07-28T09:56:31;22.40;99.90
11221;DHT22;8517;53.546;10.104;2023-07-28T09:59:02;22.40;99.90
11221;DHT22;8517;53.546;10.104;2023-07-28T10:01:32;22.50;99.90
11221;DHT22;8517;53.546;10.104;2023-07-28T10:04:00;22.50;99.90
11221;DHT22;8517;53.546;10.104;2023-07-28T10:06:28;22.60;99.90
11221;DHT22;8517;53.546;10.104;2023-07-28T10:08:55;22.60;99.90
11221;DHT22;8517;53.546;10.104;2023-07-28T10:11:22;22.60;99.90
11221;DHT22;8517;53.546;10.104;2023-07-28T10:13:51;22.60;99.90
11221;DHT22;8517;53.546;10.104;2023-07-28T10:16:31;22.70;99.90
11221;DHT22;8517;53.546;10.104;2023-07-28T10:18:59;22.60;99.90
11221;DHT22;8517;53.546;10.104;2023-07-28T10:21:28;22.60;99.90
11221;DHT22;8517;53.546;10.104;2023-07-28T10:23:58;22.60;99.90
11221;DHT22;8517;53.546;10.104;2023-07-28T10:26:33;22.60;99.90
11221;DHT22;8517;53.546;10.104;2023-07-28T10:29:11;22.60;99.90
11221;DHT22;8517;53.546;10.104;2023-07-28T10:31:49;22.60;99.90
11221;DHT22;8517;53.546;10.104;2023-07-28T10:34:16;22.60;99.90
11221;DHT22;8517;53.546;10.104;2023-07-28T10:36:44;22.70;99.90
11221;DHT22;8517;53.546;10.104;2023-07-28T10:39:15;22.70;99.90
11221;DHT22;8517;53.546;10.104;2023-07-28T10:42:01;22.70;99.90
11221;DHT22;8517;53.546;10.104;2023-07-28T10:44:28;22.70;99.90
11221;DHT22;8517;53.546;10.104;2023-07-28T10:46:57;22.70;99.90
11221;DHT22;8517;53.546;10.104;2023-07-28T10:49:24;22.80;99.90
11221;DHT22;8517;53.546;10.104;2023-07-28T10:51:51;22.70;99.90
11221;DHT22;8517;53.546;10.104;2023-07-28T10:54:18;22.70;99.90
11221;DHT22;8517;53.546;10.104;2023-07-28T10:56:46;22.70;99.90
11221;DHT22;8517;53.546;10.104;2023-07-28T10:59:13;22.70;99.90
11221;DHT22;8517;53.546;10.104;2023-07-28T11:01:41;22.80;99.90
11221;DHT22;8517;53.546;10.104;2023-07-28T11:04:10;22.80;99.90
11221;DHT22;8517;53.546;10.104;2023-07-28T11:06:40;22.90;99.90
11221;DHT22;8517;53.546;10.104;2023-07-28T11:09:08;23.00;99.90
11221;DHT22;8517;53.546;10.104;2023-07-28T11:11:35;23.10;99.90
11221;DHT22;8517;53.546;10.104;2023-07-28T11:14:03;23.20;99.90
11221;DHT22;8517;53.546;10.104;2023-07-28T11:16:32;23.20;99.90
11221;DHT22;8517;53.546;10.104;2023-07-28T11:19:00;23.30;99.90
11221;DHT22;8517;53.546;10.104;2023-07-28T11:21:29;23.40;99.90
11221;DHT22;8517;53.546;10.104;2023-07-28T11:23:56;23.50;99.90
11221;DHT22;8517;53.546;10.104;2023-07-28T11:26:23;23.60;99.90
11221;DHT22;8517;53.546;10.104;2023-07-28T11:28:51;23.70;99.90
11221;DHT22;8517;53.546;10.104;2023-07-28T11:31:23;23.70;99.90
11221;DHT22;8517;53.546;10.104;2023-07-28T11:33:51;23.80;99.90
11221;DHT22;8517;53.546;10.104;2023-07-28T11:36:22;23.90;99.90
11221;DHT22;8517;53.546;10.104;2023-07-28T11:38:50;24.00;99.90
11221;DHT22;8517;53.546;10.104;2023-07-28T11:41:18;24.00;99.90
11221;DHT22;8517;53.546;10.104;2023-07-28T11:43:46;24.10;99.90
11221;DHT22;8517;53.546;10.104;2023-07-28T11:46:31;24.20;99.90
11221;DHT22;8517;53.546;10.104;2023-07-28T11:49:07;24.30;99.90
11221;DHT22;8517;53.546;10.104;2023-07-28T11:51:45;24.40;99.90
11221;DHT22;8517;53.546;10.104;2023-07-28T11:54:14;24.50;99.90
11221;DHT22;8517;53.546;10.104;2023-07-28T11:56:42;24.60;99.90
11221;DHT22;8517;53.546;10.104;2023-07-28T11:59:09;24.60;99.90
11221;DHT22;8517;53.546;10.104;2023-07-28T12:01:51;24.60;99.90
11221;DHT22;8517;53.546;10.104;2023-07-28T12:04:25;24.60;99.90
11221;DHT22;8517;53.546;10.104;2023-07-28T12:07:06;24.60;99.90
11221;DHT22;8517;53.546;10.104;2023-07-28T12:09:50;24.60;99.90
11221;DHT22;8517;53.546;10.104;2023-07-28T12:12:20;24.70;99.90
11221;DHT22;8517;53.546;10.104;2023-07-28T12:14:47;24.70;99.90
11221;DHT22;8517;53.546;10.104;2023-07-28T12:17:14;24.70;99.90
11221;DHT22;8517;53.546;10.104;2023-07-28T12:19:58;24.80;99.90
11221;DHT22;8517;53.546;10.104;2023-07-28T12:22:25;24.80;99.90
11221;DHT22;8517;53.546;10.104;2023-07-28T12:24:54;24.90;99.90
11221;DHT22;8517;53.546;10.104;2023-07-28T12:27:21;24.90;99.90
11221;DHT22;8517;53.546;10.104;2023-07-28T12:29:50;25.00;99.90
11221;DHT22;8517;53.546;10.104;2023-07-28T12:32:16;25.10;99.90
11221;DHT22;8517;53.546;10.104;2023-07-28T12:34:43;25.10;99.90
11221;DHT22;8517;53.546;10.104;2023-07-28T12:37:10;25.10;99.90
11221;DHT22;8517;53.546;10.104;2023-07-28T12:39:38;25.10;99.90
11221;DHT22;8517;53.546;10.104;2023-07-28T12:42:07;25.00;99.90
11221;DHT22;8517;53.546;10.104;2023-07-28T12:44:35;25.00;99.90
11221;DHT22;8517;53.546;10.104;2023-07-28T12:47:02;25.00;99.90
11221;DHT22;8517;53.546;10.104;2023-07-28T12:49:29;25.00;99.90
11221;DHT22;8517;53.546;10.104;2023-07-28T12:51:56;25.00;99.90
11221;DHT22;8517;53.546;10.104;2023-07-28T12:54:23;25.00;99.90
11221;DHT22;8517;53.546;10.104;2023-07-28T12:56:50;24.90;99.90
11221;DHT22;8517;53.546;10.104;2023-07-28T12:59:18;24.90;99.90
11221;DHT22;8517;53.546;10.104;2023-07-28T13:01:45;24.90;99.90
11221;DHT22;8517;53.546;10.104;2023-07-28T13:04:12;24.90;99.90
11221;DHT22;8517;53.546;10.104;2023-07-28T13:06:39;24.90;99.90
11221;DHT22;8517;53.546;10.104;2023-07-28T13:09:07;25.00;99.90
11221;DHT22;8517;53.546;10.104;2023-07-28T13:11:34;25.00;99.90
11221;DHT22;8517;53.546;10.104;2023-07-28T13:14:00;25.00;99.90
11221;DHT22;8517;53.546;10.104;2023-07-28T13:16:29;25.10;99.90
11221;DHT22;8517;53.546;10.104;2023-07-28T13:18:57;25.10;99.90
11221;DHT22;8517;53.546;10.104;2023-07-28T13:21:25;25.20;99.90
11221;DHT22;8517;53.546;10.104;2023-07-28T13:23:51;25.10;99.90
11221;DHT22;8517;53.546;10.104;2023-07-28T13:26:18;25.10;99.90
11221;DHT22;8517;53.546;10.104;2023-07-28T13:28:45;25.10;99.90
11221;DHT22;8517;53.546;10.104;2023-07-28T13:31:14;25.10;99.90
11221;DHT22;8517;53.546;10.104;2023-07-28T13:33:43;25.10;99.90
11221;DHT22;8517;53.546;10.104;2023-07-28T13:36:10;25.10;99.90
11221;DHT22;8517;53.546;10.104;2023-07-28T13:38:37;25.00;99.90
11221;DHT22;8517;53.546;10.104;2023-07-28T13:41:04;25.00;99.90
11221;DHT22;8517;53.546;10.104;2023-07-28T13:43:32;25.10;99.90
11221;DHT22;8517;53.546;10.104;2023-07-28T13:46:00;25.10;99.90
11221;DHT22;8517;53.546;10.104;2023-07-28T13:48:27;25.10;99.90
11221;DHT22;8517;53.546;10.104;2023-07-28T13:50:55;25.10;99.90
11221;DHT22;8517;53.546;10.104;2023-07-28T13:53:22;25.10;99.90
11221;DHT22;8517;53.546;10.104;2023-07-28T13:55:48;25.10;99.90
11221;DHT22;8517;53.546;10.104;2023-07-28T13:58:19;25.10;99.90
11221;DHT22;8517;53.546;10.104;2023-07-28T14:00:48;25.10;99.90
11221;DHT22;8517;53.546;10.104;2023-07-28T14:03:19;25.10;99.90
11221;DHT22;8517;53.546;10.104;2023-07-28T14:05:45;25.10;99.90
11221;DHT22;8517;53.546;10.104;2023-07-28T14:08:16;25.10;99.90
11221;DHT22;8517;53.546;10.104;2023-07-28T14:10:44;25.20;99.90
11221;DHT22;8517;53.546;10.104;2023-07-28T14:13:11;25.20;99.90
11221;DHT22;8517;53.546;10.104;2023-07-28T14:15:38;25.20;99.90
11221;DHT22;8517;53.546;10.104;2023-07-28T14:18:05;25.20;99.90
11221;DHT22;8517;53.546;10.104;2023-07-28T14:20:32;25.30;99.90
11221;DHT22;8517;53.546;10.104;2023-07-28T14:22:59;25.30;99.90
11221;DHT22;8517;53.546;10.104;2023-07-28T14:25:28;25.30;99.90
11221;DHT22;8517;53.546;10.104;2023-07-28T14:27:58;25.40;99.90
11221;DHT22;8517;53.546;10.104;2023-07-28T14:30:30;25.30;99.90
11221;DHT22;8517;53.546;10.104;2023-07-28T14:32:57;25.30;99.90
11221;DHT22;8517;53.546;10.104;2023-07-28T14:35:26;25.30;99.90
11221;DHT22;8517;53.546;10.104;2023-07-28T14:37:53;25.30;99.90
11221;DHT22;8517;53.546;10.104;2023-07-28T14:40:20;25.30;99.90
11221;DHT22;8517;53.546;10.104;2023-07-28T14:42:48;25.30;99.90
11221;DHT22;8517;53.546;10.104;2023-07-28T14:45:15;25.30;99.90
11221;DHT22;8517;53.546;10.104;2023-07-28T14:47:41;25.30;99.90
11221;DHT22;8517;53.546;10.104;2023-07-28T14:50:09;25.30;99.90
11221;DHT22;8517;53.546;10.104;2023-07-28T14:52:36;25.40;99.90
11221;DHT22;8517;53.546;10.104;2023-07-28T14:55:03;25.40;99.90
11221;DHT22;8517;53.546;10.104;2023-07-28T14:57:30;25.50;99.90
11221;DHT22;8517;53.546;10.104;2023-07-28T14:59:58;25.60;99.90
11221;DHT22;8517;53.546;10.104;2023-07-28T15:02:25;25.70;99.90
11221;DHT22;8517;53.546;10.104;2023-07-28T15:04:52;25.80;99.90
11221;DHT22;8517;53.546;10.104;2023-07-28T15:07:19;25.80;99.90
11221;DHT22;8517;53.546;10.104;2023-07-28T15:09:48;25.80;99.90
11221;DHT22;8517;53.546;10.104;2023-07-28T15:12:14;25.80;99.90
11221;DHT22;8517;53.546;10.104;2023-07-28T15:14:41;25.70;99.90
11221;DHT22;8517;53.546;10.104;2023-07-28T15:17:09;25.60;99.90
11221;DHT22;8517;53.546;10.104;2023-07-28T15:19:36;25.60;99.90
11221;DHT22;8517;53.546;10.104;2023-07-28T15:22:04;25.50;99.90
11221;DHT22;8517;53.546;10.104;2023-07-28T15:24:30;25.50;99.90
11221;DHT22;8517;53.546;10.104;2023-07-28T15:26:57;25.50;99.90
11221;DHT22;8517;53.546;10.104;2023-07-28T15:29:24;25.40;99.90
11221;DHT22;8517;53.546;10.104;2023-07-28T15:31:51;25.40;99.90
11221;DHT22;8517;53.546;10.104;2023-07-28T15:34:20;25.40;99.90